sensor_id;sensor_type;location;lat;lon;timestamp;P1;durP1;ratioP1;P2;durP2;ratioP2
74777;SDS011;63298;53.164;8.610;2024-02-04T00:01:25;9.82;;;1.45;;
74777;SDS011;63298;53.164;8.610;2024-02-04T00:03:53;11.48;;;2.03;;
74777;SDS011;63298;53.164;8.610;2024-02-04T00:06:20;11.82;;;1.98;;
74777;SDS011;63298;53.164;8.610;2024-02-04T00:08:54;7.75;;;1.85;;
74777;SDS011;63298;53.164;8.610;2024-02-04T00:11:22;10.50;;;1.67;;
74777;SDS011;63298;53.164;8.610;2024-02-04T00:13:48;9.73;;;2.03;;
74777;SDS011;63298;53.164;8.610;2024-02-04T00:16:24;9.93;;;1.98;;
74777;SDS011;63298;53.164;8.610;2024-02-04T00:18:50;10.35;;;1.98;;
74777;SDS011;63298;53.164;8.610;2024-02-04T00:21:16;9.65;;;1.48;;
74777;SDS011;63298;53.164;8.610;2024-02-04T00:23:53;2.47;;;1.15;;
74777;SDS011;63298;53.164;8.610;2024-02-04T00:26:22;10.25;;;1.60;;
74777;SDS011;63298;53.164;8.610;2024-02-04T00:28:58;11.95;;;2.17;;
74777;SDS011;63298;53.164;8.610;2024-02-04T00:31:33;9.55;;;2.15;;
74777;SDS011;63298;53.164;8.610;2024-02-04T00:34:01;11.68;;;2.47;;
74777;SDS011;63298;53.164;8.610;2024-02-04T00:36:29;11.07;;;1.88;;
74777;SDS011;63298;53.164;8.610;2024-02-04T00:39:00;6.85;;;1.85;;
74777;SDS011;63298;53.164;8.610;2024-02-04T00:41:29;5.20;;;1.98;;
74777;SDS011;63298;53.164;8.610;2024-02-04T00:44:11;10.88;;;2.17;;
74777;SDS011;63298;53.164;8.610;2024-02-04T00:46:39;8.52;;;2.25;;
74777;SDS011;63298;53.164;8.610;2024-02-04T00:49:05;9.65;;;2.13;;
74777;SDS011;63298;53.164;8.610;2024-02-04T00:51:38;8.43;;;2.33;;
74777;SDS011;63298;53.164;8.610;2024-02-04T00:54:11;10.93;;;2.50;;
74777;SDS011;63298;53.164;8.610;2024-02-04T00:56:47;16.50;;;4.00;;
74777;SDS011;63298;53.164;8.610;2024-02-04T00:59:40;8.13;;;2.35;;
74777;SDS011;63298;53.164;8.610;2024-02-04T01:02:09;6.78;;;3.00;;
74777;SDS011;63298;53.164;8.610;2024-02-04T01:04:35;6.28;;;2.30;;
74777;SDS011;63298;53.164;8.610;2024-02-04T01:07:06;12.02;;;2.75;;
74777;SDS011;63298;53.164;8.610;2024-02-04T01:09:35;9.45;;;2.35;;
74777;SDS011;63298;53.164;8.610;2024-02-04T01:12:12;7.75;;;2.00;;
74777;SDS011;63298;53.164;8.610;2024-02-04T01:14:38;12.75;;;2.63;;
74777;SDS011;63298;53.164;8.610;2024-02-04T01:17:07;8.02;;;2.58;;
74777;SDS011;63298;53.164;8.610;2024-02-04T01:19:40;9.35;;;2.53;;
74777;SDS011;63298;53.164;8.610;2024-02-04T01:22:19;8.90;;;2.92;;
74777;SDS011;63298;53.164;8.610;2024-02-04T01:24:47;9.30;;;2.70;;
74777;SDS011;63298;53.164;8.610;2024-02-04T01:27:28;8.55;;;2.72;;
74777;SDS011;63298;53.164;8.610;2024-02-04T01:30:03;11.93;;;2.97;;
74777;SDS011;63298;53.164;8.610;2024-02-04T01:32:43;6.85;;;3.15;;
74777;SDS011;63298;53.164;8.610;2024-02-04T01:35:17;12.65;;;3.08;;
74777;SDS011;63298;53.164;8.610;2024-02-04T01:37:58;18.38;;;3.00;;
74777;SDS011;63298;53.164;8.610;2024-02-04T01:40:28;10.38;;;3.20;;
74777;SDS011;63298;53.164;8.610;2024-02-04T01:45:51;9.35;;;3.33;;
74777;SDS011;63298;53.164;8.610;2024-02-04T01:48:20;14.32;;;3.65;;
74777;SDS011;63298;53.164;8.610;2024-02-04T01:50:57;10.23;;;3.22;;
74777;SDS011;63298;53.164;8.610;2024-02-04T01:53:27;10.23;;;3.20;;
74777;SDS011;63298;53.164;8.610;2024-02-04T01:56:00;13.35;;;4.07;;
74777;SDS011;63298;53.164;8.610;2024-02-04T01:58:47;8.43;;;3.30;;
74777;SDS011;63298;53.164;8.610;2024-02-04T02:01:16;8.43;;;3.20;;
74777;SDS011;63298;53.164;8.610;2024-02-04T02:03:45;10.98;;;3.90;;
74777;SDS011;63298;53.164;8.610;2024-02-04T02:06:10;11.40;;;3.58;;
74777;SDS011;63298;53.164;8.610;2024-02-04T02:08:40;9.80;;;3.65;;
74777;SDS011;63298;53.164;8.610;2024-02-04T02:11:32;10.68;;;3.35;;
74777;SDS011;63298;53.164;8.610;2024-02-04T02:14:02;12.25;;;3.75;;
74777;SDS011;63298;53.164;8.610;2024-02-04T02:16:30;14.35;;;3.75;;
74777;SDS011;63298;53.164;8.610;2024-02-04T02:19:03;10.43;;;3.65;;
74777;SDS011;63298;53.164;8.610;2024-02-04T02:21:47;15.68;;;3.70;;
74777;SDS011;63298;53.164;8.610;2024-02-04T02:26:56;12.38;;;3.78;;
74777;SDS011;63298;53.164;8.610;2024-02-04T02:29:24;18.83;;;3.42;;
74777;SDS011;63298;53.164;8.610;2024-02-04T02:31:50;16.92;;;3.63;;
74777;SDS011;63298;53.164;8.610;2024-02-04T02:34:16;7.85;;;3.17;;
74777;SDS011;63298;53.164;8.610;2024-02-04T02:36:49;7.82;;;3.38;;
74777;SDS011;63298;53.164;8.610;2024-02-04T02:39:24;10.52;;;3.78;;
74777;SDS011;63298;53.164;8.610;2024-02-04T02:41:53;8.68;;;3.10;;
74777;SDS011;63298;53.164;8.610;2024-02-04T02:44:23;11.90;;;3.05;;
74777;SDS011;63298;53.164;8.610;2024-02-04T02:46:50;14.48;;;3.55;;
74777;SDS011;63298;53.164;8.610;2024-02-04T02:49:16;6.82;;;3.03;;
74777;SDS011;63298;53.164;8.610;2024-02-04T02:51:44;9.40;;;2.90;;
74777;SDS011;63298;53.164;8.610;2024-02-04T02:54:13;8.90;;;3.10;;
74777;SDS011;63298;53.164;8.610;2024-02-04T02:56:38;7.85;;;3.13;;
74777;SDS011;63298;53.164;8.610;2024-02-04T02:59:06;10.30;;;3.28;;
74777;SDS011;63298;53.164;8.610;2024-02-04T03:01:38;12.05;;;2.92;;
74777;SDS011;63298;53.164;8.610;2024-02-04T03:04:04;8.63;;;2.97;;
74777;SDS011;63298;53.164;8.610;2024-02-04T03:06:35;12.27;;;3.05;;
74777;SDS011;63298;53.164;8.610;2024-02-04T03:09:00;10.55;;;2.58;;
74777;SDS011;63298;53.164;8.610;2024-02-04T03:11:35;9.25;;;3.05;;
74777;SDS011;63298;53.164;8.610;2024-02-04T03:14:01;13.52;;;3.17;;
74777;SDS011;63298;53.164;8.610;2024-02-04T03:16:30;6.60;;;2.70;;
74777;SDS011;63298;53.164;8.610;2024-02-04T03:19:00;12.90;;;2.58;;
74777;SDS011;63298;53.164;8.610;2024-02-04T03:21:30;13.68;;;2.85;;
74777;SDS011;63298;53.164;8.610;2024-02-04T03:23:55;11.70;;;2.80;;
74777;SDS011;63298;53.164;8.610;2024-02-04T03:26:26;11.85;;;2.88;;
74777;SDS011;63298;53.164;8.610;2024-02-04T03:28:54;12.93;;;2.65;;
74777;SDS011;63298;53.164;8.610;2024-02-04T03:31:20;12.40;;;3.00;;
74777;SDS011;63298;53.164;8.610;2024-02-04T03:33:49;8.15;;;2.88;;
74777;SDS011;63298;53.164;8.610;2024-02-04T03:36:18;4.88;;;2.15;;
74777;SDS011;63298;53.164;8.610;2024-02-04T03:38:54;12.45;;;2.90;;
74777;SDS011;63298;53.164;8.610;2024-02-04T03:43:57;10.57;;;2.17;;
74777;SDS011;63298;53.164;8.610;2024-02-04T03:46:22;12.98;;;2.25;;
74777;SDS011;63298;53.164;8.610;2024-02-04T03:49:08;15.70;;;2.30;;
74777;SDS011;63298;53.164;8.610;2024-02-04T03:51:38;12.40;;;2.28;;
74777;SDS011;63298;53.164;8.610;2024-02-04T03:54:04;6.88;;;1.92;;
74777;SDS011;63298;53.164;8.610;2024-02-04T03:56:32;8.93;;;2.00;;
74777;SDS011;63298;53.164;8.610;2024-02-04T03:59:03;10.55;;;1.92;;
74777;SDS011;63298;53.164;8.610;2024-02-04T04:01:28;6.30;;;2.08;;
74777;SDS011;63298;53.164;8.610;2024-02-04T04:03:54;11.90;;;1.95;;
74777;SDS011;63298;53.164;8.610;2024-02-04T04:06:19;15.50;;;2.55;;
74777;SDS011;63298;53.164;8.610;2024-02-04T04:08:48;6.85;;;1.67;;
74777;SDS011;63298;53.164;8.610;2024-02-04T04:11:14;7.60;;;1.63;;
74777;SDS011;63298;53.164;8.610;2024-02-04T04:13:40;6.00;;;1.58;;
74777;SDS011;63298;53.164;8.610;2024-02-04T04:16:08;9.75;;;2.03;;
74777;SDS011;63298;53.164;8.610;2024-02-04T04:18:33;7.00;;;1.73;;
74777;SDS011;63298;53.164;8.610;2024-02-04T04:21:04;11.20;;;1.77;;
74777;SDS011;63298;53.164;8.610;2024-02-04T04:23:38;11.98;;;1.70;;
74777;SDS011;63298;53.164;8.610;2024-02-04T04:26:06;6.72;;;1.80;;
74777;SDS011;63298;53.164;8.610;2024-02-04T04:28:36;14.50;;;1.70;;
74777;SDS011;63298;53.164;8.610;2024-02-04T04:31:05;7.57;;;1.08;;
74777;SDS011;63298;53.164;8.610;2024-02-04T04:33:30;14.10;;;1.90;;
74777;SDS011;63298;53.164;8.610;2024-02-04T04:35:58;6.35;;;1.35;;
74777;SDS011;63298;53.164;8.610;2024-02-04T04:38:23;9.23;;;2.08;;
74777;SDS011;63298;53.164;8.610;2024-02-04T04:40:49;8.32;;;2.20;;
74777;SDS011;63298;53.164;8.610;2024-02-04T04:43:14;9.05;;;1.45;;
74777;SDS011;63298;53.164;8.610;2024-02-04T04:45:40;7.53;;;1.98;;
74777;SDS011;63298;53.164;8.610;2024-02-04T04:48:08;7.03;;;1.27;;
74777;SDS011;63298;53.164;8.610;2024-02-04T04:50:36;18.27;;;1.77;;
74777;SDS011;63298;53.164;8.610;2024-02-04T04:53:03;7.05;;;1.20;;
74777;SDS011;63298;53.164;8.610;2024-02-04T04:55:28;12.23;;;2.28;;
74777;SDS011;63298;53.164;8.610;2024-02-04T04:57:54;6.88;;;1.67;;
74777;SDS011;63298;53.164;8.610;2024-02-04T05:00:22;7.53;;;1.52;;
74777;SDS011;63298;53.164;8.610;2024-02-04T05:02:47;9.77;;;1.95;;
74777;SDS011;63298;53.164;8.610;2024-02-04T05:05:13;12.32;;;1.45;;
74777;SDS011;63298;53.164;8.610;2024-02-04T05:07:38;9.35;;;1.20;;
74777;SDS011;63298;53.164;8.610;2024-02-04T05:10:06;7.40;;;1.25;;
74777;SDS011;63298;53.164;8.610;2024-02-04T05:12:35;6.00;;;1.58;;
74777;SDS011;63298;53.164;8.610;2024-02-04T05:15:01;10.18;;;1.77;;
74777;SDS011;63298;53.164;8.610;2024-02-04T05:17:26;7.65;;;1.30;;
74777;SDS011;63298;53.164;8.610;2024-02-04T05:19:52;5.68;;;1.17;;
74777;SDS011;63298;53.164;8.610;2024-02-04T05:22:20;11.57;;;2.55;;
74777;SDS011;63298;53.164;8.610;2024-02-04T05:24:45;10.00;;;1.67;;
74777;SDS011;63298;53.164;8.610;2024-02-04T05:27:11;5.85;;;1.10;;
74777;SDS011;63298;53.164;8.610;2024-02-04T05:29:36;4.32;;;1.67;;
74777;SDS011;63298;53.164;8.610;2024-02-04T05:32:07;5.30;;;1.17;;
74777;SDS011;63298;53.164;8.610;2024-02-04T05:34:33;5.93;;;1.20;;
74777;SDS011;63298;53.164;8.610;2024-02-04T05:36:59;8.77;;;2.28;;
74777;SDS011;63298;53.164;8.610;2024-02-04T05:39:24;9.02;;;1.80;;
74777;SDS011;63298;53.164;8.610;2024-02-04T05:41:50;5.10;;;1.35;;
74777;SDS011;63298;53.164;8.610;2024-02-04T05:44:15;9.25;;;1.58;;
74777;SDS011;63298;53.164;8.610;2024-02-04T05:46:41;8.10;;;1.73;;
74777;SDS011;63298;53.164;8.610;2024-02-04T05:49:06;8.02;;;1.10;;
74777;SDS011;63298;53.164;8.610;2024-02-04T05:51:32;7.18;;;1.50;;
74777;SDS011;63298;53.164;8.610;2024-02-04T05:54:02;4.22;;;1.20;;
74777;SDS011;63298;53.164;8.610;2024-02-04T05:56:30;4.40;;;1.13;;
74777;SDS011;63298;53.164;8.610;2024-02-04T05:58:55;9.93;;;1.85;;
74777;SDS011;63298;53.164;8.610;2024-02-04T06:01:21;6.88;;;1.20;;
74777;SDS011;63298;53.164;8.610;2024-02-04T06:03:46;7.95;;;1.20;;
74777;SDS011;63298;53.164;8.610;2024-02-04T06:06:15;10.65;;;1.52;;
74777;SDS011;63298;53.164;8.610;2024-02-04T06:08:42;4.65;;;0.98;;
74777;SDS011;63298;53.164;8.610;2024-02-04T06:11:11;10.25;;;1.40;;
74777;SDS011;63298;53.164;8.610;2024-02-04T06:13:44;9.57;;;1.35;;
74777;SDS011;63298;53.164;8.610;2024-02-04T06:16:10;8.80;;;1.70;;
74777;SDS011;63298;53.164;8.610;2024-02-04T06:18:35;5.28;;;1.20;;
74777;SDS011;63298;53.164;8.610;2024-02-04T06:21:01;10.90;;;1.55;;
74777;SDS011;63298;53.164;8.610;2024-02-04T06:23:29;7.75;;;1.35;;
74777;SDS011;63298;53.164;8.610;2024-02-04T06:25:57;10.27;;;1.42;;
74777;SDS011;63298;53.164;8.610;2024-02-04T06:28:23;12.73;;;2.25;;
74777;SDS011;63298;53.164;8.610;2024-02-04T06:30:51;8.65;;;1.55;;
74777;SDS011;63298;53.164;8.610;2024-02-04T06:33:17;6.70;;;1.48;;
74777;SDS011;63298;53.164;8.610;2024-02-04T06:35:45;7.65;;;2.08;;
74777;SDS011;63298;53.164;8.610;2024-02-04T06:38:11;10.55;;;1.80;;
74777;SDS011;63298;53.164;8.610;2024-02-04T06:40:39;8.02;;;1.58;;
74777;SDS011;63298;53.164;8.610;2024-02-04T06:43:04;4.70;;;1.85;;
74777;SDS011;63298;53.164;8.610;2024-02-04T06:45:35;8.60;;;2.03;;
74777;SDS011;63298;53.164;8.610;2024-02-04T06:48:00;6.88;;;1.70;;
74777;SDS011;63298;53.164;8.610;2024-02-04T06:50:28;5.10;;;1.95;;
74777;SDS011;63298;53.164;8.610;2024-02-04T06:52:54;10.27;;;1.88;;
74777;SDS011;63298;53.164;8.610;2024-02-04T06:55:19;14.18;;;2.60;;
74777;SDS011;63298;53.164;8.610;2024-02-04T06:57:45;9.40;;;1.92;;
74777;SDS011;63298;53.164;8.610;2024-02-04T07:00:14;3.90;;;1.73;;
74777;SDS011;63298;53.164;8.610;2024-02-04T07:02:39;8.40;;;2.55;;
74777;SDS011;63298;53.164;8.610;2024-02-04T07:05:05;8.95;;;2.08;;
74777;SDS011;63298;53.164;8.610;2024-02-04T07:07:30;6.18;;;2.45;;
74777;SDS011;63298;53.164;8.610;2024-02-04T07:09:59;6.78;;;1.98;;
74777;SDS011;63298;53.164;8.610;2024-02-04T07:12:27;13.05;;;2.60;;
74777;SDS011;63298;53.164;8.610;2024-02-04T07:14:53;10.63;;;2.47;;
74777;SDS011;63298;53.164;8.610;2024-02-04T07:17:22;10.18;;;2.20;;
74777;SDS011;63298;53.164;8.610;2024-02-04T07:19:47;8.48;;;2.28;;
74777;SDS011;63298;53.164;8.610;2024-02-04T07:22:15;13.52;;;2.78;;
74777;SDS011;63298;53.164;8.610;2024-02-04T07:24:41;11.23;;;2.92;;
74777;SDS011;63298;53.164;8.610;2024-02-04T07:27:08;12.10;;;2.03;;
74777;SDS011;63298;53.164;8.610;2024-02-04T07:29:37;17.52;;;2.60;;
74777;SDS011;63298;53.164;8.610;2024-02-04T07:32:08;17.17;;;2.42;;
74777;SDS011;63298;53.164;8.610;2024-02-04T07:34:35;11.25;;;2.00;;
74777;SDS011;63298;53.164;8.610;2024-02-04T07:37:01;12.70;;;2.10;;
74777;SDS011;63298;53.164;8.610;2024-02-04T07:39:26;11.02;;;2.67;;
74777;SDS011;63298;53.164;8.610;2024-02-04T07:41:52;10.23;;;2.30;;
74777;SDS011;63298;53.164;8.610;2024-02-04T14:36:14;5.85;;;2.25;;
74777;SDS011;63298;53.164;8.610;2024-02-04T14:38:40;8.52;;;2.60;;
74777;SDS011;63298;53.164;8.610;2024-02-04T14:41:05;9.45;;;1.80;;
74777;SDS011;63298;53.164;8.610;2024-02-04T18:25:27;6.72;;;2.10;;
74777;SDS011;63298;53.164;8.610;2024-02-04T18:27:55;3.05;;;1.92;;
74777;SDS011;63298;53.164;8.610;2024-02-04T18:30:23;5.35;;;2.28;;
74777;SDS011;63298;53.164;8.610;2024-02-04T18:33:05;3.25;;;2.13;;
74777;SDS011;63298;53.164;8.610;2024-02-04T18:38:27;1.92;;;1.73;;
74777;SDS011;63298;53.164;8.610;2024-02-04T18:40:55;2.05;;;1.75;;
74777;SDS011;63298;53.164;8.610;2024-02-04T18:43:23;5.40;;;3.05;;
